Time;durP1;ratioP1;P1;durP2;ratioP2;P2;SDS_P1;SDS_P2;PMS_P1;PMS_P2;Temp;Humidity;BMP_temperature;BMP_pressure;BME280_temperature;BME280_humidity;BME280_pressure;Samples;Min_cycle;Max_cycle;Signal;HPM_P1;HPM_P2
2024/04/09 00:01:59;;;;;;;4.50;2.50;;;21.20;60.90;;;;;;5317863;26;20300;-72
2024/04/09 00:04:27;;;;;;;7.17;2.30;;;21.20;60.60;;;;;;5311398;26;20291;-74
2024/04/09 00:06:54;;;;;;;8.40;3.03;;;21.20;61.00;;;;;;5325937;26;20235;-72
2024/04/09 00:09:22;;;;;;;7.17;2.60;;;21.20;61.50;;;;;;5323786;26;20306;-74
2024/04/09 00:11:53;;;;;;;9.10;2.33;;;21.10;60.90;;;;;;5328244;26;20748;-72
2024/04/09 00:14:20;;;;;;;3.77;2.23;;;21.20;61.10;;;;;;5328601;26;20327;-73
2024/04/09 00:16:47;;;;;;;8.37;2.10;;;21.20;60.00;;;;;;5324118;26;20244;-72
2024/04/09 00:19:17;;;;;;;5.17;2.20;;;21.30;59.30;;;;;;5327343;26;20289;-74
2024/04/09 00:21:47;;;;;;;6.47;2.33;;;21.50;58.20;;;;;;5316176;26;20433;-72
2024/04/09 00:24:16;;;;;;;3.93;2.57;;;21.70;57.20;;;;;;5325666;26;20781;-73
2024/04/09 00:26:44;;;;;;;3.23;1.60;;;21.40;58.00;;;;;;5325223;26;20734;-72
2024/04/09 00:29:11;;;;;;;5.67;2.33;;;21.20;58.70;;;;;;5332822;26;20239;-72
2024/04/09 00:31:39;;;;;;;4.77;2.47;;;21.50;58.50;;;;;;5320351;26;20318;-74
2024/04/09 00:34:06;;;;;;;3.97;2.33;;;21.40;58.00;;;;;;5328572;26;20302;-73
2024/04/09 00:36:34;;;;;;;6.53;2.17;;;21.40;58.70;;;;;;5316101;26;20311;-73
2024/04/09 00:39:02;;;;;;;5.00;2.37;;;21.30;57.90;;;;;;5320398;26;20297;-75
2024/04/09 00:41:29;;;;;;;3.93;2.43;;;21.40;57.90;;;;;;5322999;26;20278;-74
2024/04/09 00:43:57;;;;;;;3.60;2.23;;;21.50;58.70;;;;;;5314613;26;20319;-74
2024/04/09 00:46:24;;;;;;;4.17;2.20;;;21.30;58.90;;;;;;5319408;26;20386;-74
2024/04/09 00:48:53;;;;;;;4.17;2.00;;;21.30;58.00;;;;;;5338275;26;20942;-75
2024/04/09 00:51:20;;;;;;;3.53;1.97;;;21.50;58.40;;;;;;5320197;26;20362;-76
2024/04/09 00:53:49;;;;;;;5.17;2.43;;;21.80;58.00;;;;;;5319340;26;20240;-75
2024/04/09 00:56:17;;;;;;;3.60;2.10;;;21.80;57.50;;;;;;5312364;26;20315;-72
2024/04/09 00:58:47;;;;;;;3.87;2.10;;;22.20;57.40;;;;;;5313345;26;20338;-75
2024/04/09 01:01:18;;;;;;;4.93;1.93;;;22.30;56.60;;;;;;5321202;26;20239;-75
2024/04/09 01:03:48;;;;;;;3.13;2.10;;;22.30;56.40;;;;;;5315269;26;20240;-74
2024/04/09 01:06:15;;;;;;;2.33;1.60;;;22.20;56.80;;;;;;5318215;26;20356;-74
2024/04/09 01:08:43;;;;;;;5.37;2.23;;;22.30;57.00;;;;;;5311855;26;20236;-75
2024/04/09 01:11:10;;;;;;;3.10;1.83;;;22.40;55.70;;;;;;5323871;26;20243;-75
2024/04/09 01:13:41;;;;;;;2.33;1.60;;;22.40;55.70;;;;;;5318777;26;20279;-74
2024/04/09 01:16:10;;;;;;;3.47;1.70;;;22.30;55.50;;;;;;5320968;26;20290;-74
2024/04/09 01:18:37;;;;;;;4.07;1.87;;;22.20;56.20;;;;;;5325380;26;20248;-74
2024/04/09 01:21:05;;;;;;;3.07;1.77;;;22.40;56.70;;;;;;5326548;26;20270;-74
2024/04/09 01:23:32;;;;;;;6.77;2.20;;;22.10;56.10;;;;;;5371283;26;20321;-74
2024/04/09 01:26:01;;;;;;;5.93;2.40;;;22.00;58.00;;;;;;5324201;26;20576;-73
2024/04/09 01:28:28;;;;;;;7.50;2.40;;;21.70;59.00;;;;;;5323345;26;20291;-78
2024/04/09 01:30:55;;;;;;;5.33;2.50;;;21.70;60.00;;;;;;5319516;26;20287;-75
2024/04/09 01:33:24;;;;;;;7.43;2.40;;;21.60;59.70;;;;;;5321929;26;20334;-74
2024/04/09 01:35:52;;;;;;;3.03;2.07;;;21.60;59.40;;;;;;5326283;26;20251;-73
2024/04/09 01:38:19;;;;;;;4.87;2.50;;;21.70;59.60;;;;;;5322697;26;20742;-76
2024/04/09 01:40:48;;;;;;;3.57;2.40;;;21.80;58.30;;;;;;5323952;26;20304;-73
2024/04/09 01:43:15;;;;;;;5.20;2.40;;;22.00;58.40;;;;;;5321641;26;20240;-74
2024/04/09 01:45:42;;;;;;;5.27;2.50;;;22.30;58.30;;;;;;5326134;26;20356;-71
2024/04/09 01:48:11;;;;;;;6.47;2.77;;;22.80;58.50;;;;;;5324107;26;20323;-73
2024/04/09 01:50:38;;;;;;;12.30;3.30;;;22.50;61.00;;;;;;5313454;26;20260;-74
2024/04/09 01:53:06;;;;;;;11.50;2.90;;;22.50;63.20;;;;;;5327788;26;20233;-74
2024/04/09 01:55:33;;;;;;;8.67;2.37;;;22.70;64.70;;;;;;5327273;26;20285;-74
2024/04/09 01:58:01;;;;;;;10.40;3.00;;;22.40;66.20;;;;;;5324546;26;20244;-78
2024/04/09 02:00:31;;;;;;;10.97;2.83;;;22.30;66.60;;;;;;5324980;26;20244;-74
2024/04/09 02:03:01;;;;;;;8.17;2.40;;;22.10;67.20;;;;;;5315034;26;20742;-73
2024/04/09 02:05:29;;;;;;;12.00;2.00;;;22.10;66.30;;;;;;5310094;26;20296;-76
2024/04/09 02:07:56;;;;;;;9.73;2.53;;;22.20;64.90;;;;;;5336911;26;20259;-77
2024/04/09 02:10:23;;;;;;;14.93;2.60;;;22.80;64.60;;;;;;5312596;26;20264;-73
2024/04/09 02:12:51;;;;;;;12.47;2.87;;;22.50;64.30;;;;;;5313336;26;20236;-74
2024/04/09 02:15:18;;;;;;;10.63;2.93;;;22.00;65.70;;;;;;5314123;26;20244;-76
2024/04/09 02:17:46;;;;;;;13.47;3.23;;;22.20;65.60;;;;;;5314460;27;20570;-74
2024/04/09 02:20:13;;;;;;;9.63;2.93;;;21.90;66.60;;;;;;5311979;26;20248;-74
2024/04/09 02:22:40;;;;;;;11.63;2.50;;;21.50;68.40;;;;;;5311917;27;20236;-75
2024/04/09 02:25:08;;;;;;;19.03;3.00;;;21.70;68.80;;;;;;5311908;27;20237;-77
2024/04/09 02:27:35;;;;;;;14.43;3.00;;;21.80;68.80;;;;;;5315452;27;20240;-74
2024/04/09 02:30:03;;;;;;;16.47;3.33;;;22.20;66.80;;;;;;5309191;26;20556;-74
2024/04/09 02:32:31;;;;;;;16.70;2.50;;;21.60;67.00;;;;;;5301257;26;20656;-73
2024/04/09 02:35:01;;;;;;;9.83;2.50;;;21.30;67.90;;;;;;5313354;26;20350;-72
2024/04/09 02:37:28;;;;;;;17.90;2.90;;;21.30;68.40;;;;;;5312798;26;20595;-75
2024/04/09 02:39:56;;;;;;;13.80;2.60;;;20.90;70.00;;;;;;5311736;27;20232;-74
2024/04/09 02:42:24;;;;;;;9.97;2.30;;;20.90;70.80;;;;;;5312421;27;20240;-73
2024/04/09 02:44:52;;;;;;;12.43;2.40;;;20.80;71.10;;;;;;5311673;26;20363;-72
2024/04/09 02:47:19;;;;;;;6.80;1.83;;;20.60;71.50;;;;;;5311671;26;20354;-75
2024/04/09 02:49:47;;;;;;;7.97;2.13;;;20.80;70.00;;;;;;5314135;27;20228;-75
2024/04/09 02:52:14;;;;;;;6.03;1.50;;;20.90;69.50;;;;;;5312556;26;20637;-75
2024/04/09 02:54:41;;;;;;;4.27;1.30;;;21.30;67.40;;;;;;5311934;26;20237;-74
2024/04/09 02:57:11;;;;;;;9.03;1.37;;;21.60;65.10;;;;;;5356402;26;20267;-73
2024/04/09 02:59:39;;;;;;;6.87;1.07;;;21.00;65.00;;;;;;5311778;27;20278;-73
2024/04/09 03:02:06;;;;;;;8.10;1.70;;;20.80;66.40;;;;;;5310844;26;20290;-73
2024/04/09 03:04:33;;;;;;;8.33;1.70;;;20.50;66.80;;;;;;5311194;26;20275;-74
2024/04/09 03:07:01;;;;;;;28.67;2.70;;;20.30;68.20;;;;;;5308350;26;20233;-74
2024/04/09 03:09:30;;;;;;;10.57;1.63;;;20.30;68.80;;;;;;5301283;26;20231;-78
2024/04/09 03:11:58;;;;;;;7.23;1.67;;;20.40;67.90;;;;;;5310774;27;20286;-72
2024/04/09 03:14:25;;;;;;;5.17;1.37;;;20.80;67.00;;;;;;5312051;26;20302;-73
2024/04/09 03:16:52;;;;;;;25.77;2.50;;;20.60;66.80;;;;;;5308912;26;20279;-76
2024/04/09 03:19:20;;;;;;;5.37;1.60;;;20.40;66.60;;;;;;5316707;26;20289;-77
2024/04/09 03:21:47;;;;;;;8.83;1.37;;;20.10;67.10;;;;;;5317171;26;20312;-73
2024/04/09 03:24:14;;;;;;;10.67;2.40;;;20.00;66.80;;;;;;5313211;26;20311;-73
2024/04/09 03:26:42;;;;;;;14.57;1.90;;;19.70;67.70;;;;;;5310974;26;20308;-73
2024/04/09 03:29:09;;;;;;;10.33;2.00;;;19.60;68.80;;;;;;5316463;26;20288;-74
2024/04/09 03:31:36;;;;;;;12.43;1.67;;;19.30;68.20;;;;;;5317668;26;20274;-72
2024/04/09 03:34:04;;;;;;;10.63;2.10;;;19.10;69.00;;;;;;5310961;26;20240;-73
2024/04/09 03:36:31;;;;;;;8.40;2.03;;;18.80;69.40;;;;;;5316412;26;20296;-73
2024/04/09 03:39:04;;;;;;;10.17;2.50;;;18.80;70.00;;;;;;5313033;26;20256;-71
2024/04/09 03:41:31;;;;;;;6.40;1.73;;;18.80;69.80;;;;;;5313806;26;20518;-73
2024/04/09 03:44:02;;;;;;;17.00;2.10;;;18.80;69.70;;;;;;5321371;26;20252;-73
2024/04/09 03:46:29;;;;;;;12.90;1.83;;;18.50;70.40;;;;;;5320961;26;20578;-73
2024/04/09 03:49:00;;;;;;;9.70;1.50;;;18.40;71.30;;;;;;5321162;26;20278;-75
2024/04/09 03:51:27;;;;;;;11.50;1.87;;;18.30;71.50;;;;;;5320133;26;20247;-75
2024/04/09 03:53:55;;;;;;;12.73;2.27;;;18.20;71.40;;;;;;5308650;26;20273;-75
2024/04/09 03:56:23;;;;;;;6.37;2.07;;;18.10;72.00;;;;;;5323062;26;20340;-73
2024/04/09 03:58:51;;;;;;;6.00;2.27;;;18.00;72.30;;;;;;5321436;26;20246;-75
2024/04/09 04:01:18;;;;;;;14.23;2.50;;;17.80;72.90;;;;;;5329294;26;20291;-72
2024/04/09 04:03:49;;;;;;;11.80;2.00;;;17.70;73.70;;;;;;5321908;26;20232;-73
2024/04/09 04:06:17;;;;;;;10.10;2.30;;;17.70;74.10;;;;;;5321064;26;20266;-73
2024/04/09 04:08:45;;;;;;;9.50;1.90;;;17.70;74.30;;;;;;5315183;26;20250;-74
2024/04/09 04:11:16;;;;;;;11.30;2.10;;;17.50;74.60;;;;;;5312371;26;20274;-73
2024/04/09 04:13:44;;;;;;;10.60;1.90;;;17.40;75.50;;;;;;5320265;26;20273;-75
2024/04/09 04:16:14;;;;;;;11.87;2.30;;;17.40;76.30;;;;;;5314909;26;20247;-72
2024/04/09 04:18:46;;;;;;;13.03;2.17;;;17.30;77.20;;;;;;5316847;26;20247;-73
2024/04/09 04:21:22;;;;;;;9.33;2.37;;;17.30;79.60;;;;;;5313838;26;20349;-74
2024/04/09 04:23:51;;;;;;;13.67;3.70;;;17.10;81.20;;;;;;5313907;26;20809;-75
2024/04/09 04:26:23;;;;;;;9.90;4.17;;;17.00;82.30;;;;;;5306503;26;20289;-74
2024/04/09 04:28:52;;;;;;;10.43;6.97;;;16.80;82.70;;;;;;5319479;26;20239;-76
2024/04/09 04:31:21;;;;;;;13.23;10.20;;;16.70;83.40;;;;;;5314117;26;20244;-73
2024/04/09 04:33:50;;;;;;;16.20;14.57;;;16.50;84.10;;;;;;5314483;26;20709;-71
2024/04/09 04:36:18;;;;;;;22.23;20.47;;;16.30;84.30;;;;;;5323854;26;20327;-72
2024/04/09 04:38:47;;;;;;;30.30;28.30;;;16.10;84.40;;;;;;5316620;26;20242;-72
2024/04/09 04:41:14;;;;;;;34.50;31.90;;;16.30;85.20;;;;;;5310079;26;20362;-73
2024/04/09 04:43:42;;;;;;;37.73;35.10;;;16.20;84.90;;;;;;5312182;26;20235;-72
2024/04/09 04:46:10;;;;;;;43.43;40.90;;;16.20;85.00;;;;;;5310230;26;20290;-73
2024/04/09 04:48:39;;;;;;;49.33;46.33;;;16.10;84.10;;;;;;5306890;26;20250;-74
2024/04/09 04:51:08;;;;;;;48.10;45.07;;;16.10;83.30;;;;;;5308217;26;20253;-74
2024/04/09 04:53:35;;;;;;;50.90;47.43;;;16.00;82.80;;;;;;5309263;26;20292;-73
2024/04/09 04:56:03;;;;;;;56.77;53.10;;;16.00;83.30;;;;;;5321875;26;20576;-76
2024/04/09 04:58:30;;;;;;;52.87;49.57;;;16.00;83.20;;;;;;5317237;26;20785;-72
2024/04/09 05:00:57;;;;;;;57.13;53.73;;;15.80;83.10;;;;;;5316895;26;20291;-72
2024/04/09 05:03:25;;;;;;;57.40;54.13;;;15.90;83.20;;;;;;5318333;26;20242;-72
2024/04/09 05:05:52;;;;;;;66.07;61.77;;;15.80;82.70;;;;;;5318313;26;20263;-72
2024/04/09 05:08:20;;;;;;;82.60;77.67;;;15.80;83.40;;;;;;5310601;26;20301;-71
2024/04/09 05:10:47;;;;;;;93.80;88.13;;;15.80;84.20;;;;;;5315976;26;20526;-73
2024/04/09 05:13:14;;;;;;;110.57;104.67;;;15.70;84.40;;;;;;5315186;26;20744;-74
2024/04/09 05:15:42;;;;;;;122.43;115.47;;;15.60;85.60;;;;;;5317300;26;20286;-74
2024/04/09 05:18:14;;;;;;;135.27;128.33;;;15.40;86.50;;;;;;5315336;26;20240;-73
2024/04/09 05:20:41;;;;;;;144.83;136.90;;;15.10;86.90;;;;;;5320177;26;20286;-74
2024/04/09 05:23:09;;;;;;;139.50;132.03;;;14.90;87.70;;;;;;5321350;26;20251;-74
2024/04/09 05:25:36;;;;;;;159.67;151.13;;;14.80;88.30;;;;;;5307029;26;20815;-72
2024/04/09 05:28:03;;;;;;;179.07;170.17;;;14.60;88.70;;;;;;5304593;26;20241;-78
2024/04/09 05:30:31;;;;;;;196.17;186.50;;;14.60;89.40;;;;;;5298331;26;20313;-73
2024/04/09 05:32:58;;;;;;;229.03;217.90;;;14.60;89.70;;;;;;5310389;26;20241;-77
2024/04/09 05:35:26;;;;;;;240.13;228.37;;;14.50;90.20;;;;;;5318891;26;20274;-75
2024/04/09 05:37:53;;;;;;;254.10;241.73;;;14.40;90.40;;;;;;5318306;26;20240;-76
2024/04/09 05:40:20;;;;;;;278.97;265.43;;;14.40;90.60;;;;;;5310761;26;20298;-70
2024/04/09 05:42:51;;;;;;;280.90;267.27;;;14.30;90.80;;;;;;5313740;26;20253;-78
2024/04/09 05:45:22;;;;;;;304.67;290.27;;;14.30;90.70;;;;;;5312197;26;20640;-77
2024/04/09 05:47:49;;;;;;;303.73;289.10;;;14.20;90.70;;;;;;5311896;26;20284;-75
2024/04/09 05:50:17;;;;;;;304.60;289.87;;;14.10;90.80;;;;;;5311949;26;20726;-76
2024/04/09 05:52:44;;;;;;;290.33;276.33;;;13.90;90.80;;;;;;5318429;26;20273;-70
2024/04/09 05:55:12;;;;;;;313.60;298.70;;;13.80;90.90;;;;;;5313932;26;20240;-71
2024/04/09 05:57:39;;;;;;;312.23;297.53;;;13.80;91.20;;;;;;5315161;26;20285;-71
2024/04/09 06:00:11;;;;;;;306.10;291.37;;;13.70;90.70;;;;;;5320927;26;20315;-73
2024/04/09 06:02:38;;;;;;;342.37;325.97;;;13.50;90.70;;;;;;5322124;26;20300;-70
2024/04/09 06:05:06;;;;;;;348.17;331.50;;;13.60;91.30;;;;;;5317167;26;20348;-78
2024/04/09 06:07:34;;;;;;;351.00;334.27;;;13.60;91.40;;;;;;5306814;26;20240;-71
2024/04/09 06:10:03;;;;;;;392.57;373.60;;;13.50;91.30;;;;;;5313245;26;20271;-73
2024/04/09 06:12:30;;;;;;;418.60;398.40;;;13.40;91.30;;;;;;5319392;26;20231;-77
2024/04/09 06:15:01;;;;;;;399.23;379.73;;;13.30;91.50;;;;;;5315383;26;20240;-73
2024/04/09 06:17:28;;;;;;;432.77;411.97;;;13.30;91.30;;;;;;5320427;26;20731;-74
2024/04/09 06:19:58;;;;;;;396.40;377.63;;;13.30;91.60;;;;;;5321530;26;20285;-71
2024/04/09 06:22:26;;;;;;;411.37;391.53;;;13.10;91.40;;;;;;5309207;26;20726;-70
2024/04/09 06:24:53;;;;;;;443.57;422.40;;;13.10;91.80;;;;;;5308656;26;20292;-69
2024/04/09 06:27:22;;;;;;;438.87;417.97;;;13.00;92.00;;;;;;5306086;26;20314;-71
2024/04/09 06:29:50;;;;;;;461.27;439.17;;;13.00;92.50;;;;;;5313675;26;20243;-76
2024/04/09 06:32:18;;;;;;;484.13;460.73;;;12.80;92.70;;;;;;5312338;26;20299;-72
2024/04/09 06:34:45;;;;;;;466.40;443.93;;;12.80;93.00;;;;;;5314632;26;20278;-70
2024/04/09 06:37:12;;;;;;;471.10;448.53;;;12.70;93.20;;;;;;5314367;26;20292;-70
2024/04/09 06:39:40;;;;;;;478.70;455.73;;;12.80;93.30;;;;;;5306445;26;20240;-69
2024/04/09 06:42:07;;;;;;;487.43;464.00;;;12.70;93.50;;;;;;5314803;26;20232;-71
2024/04/09 06:44:35;;;;;;;497.43;473.57;;;12.70;93.60;;;;;;5313505;26;20241;-70
2024/04/09 06:47:02;;;;;;;502.63;478.63;;;12.70;93.80;;;;;;5312876;26;20749;-73
2024/04/09 06:49:30;;;;;;;508.47;483.97;;;12.70;93.80;;;;;;5310299;26;20252;-70
2024/04/09 06:51:57;;;;;;;509.13;484.73;;;12.70;93.70;;;;;;5312655;26;20615;-72
2024/04/09 06:54:25;;;;;;;510.80;486.10;;;12.70;94.00;;;;;;5309875;26;20290;-69
2024/04/09 06:56:52;;;;;;;523.80;498.43;;;12.70;93.90;;;;;;5303644;26;20712;-71
2024/04/09 06:59:19;;;;;;;520.60;495.33;;;12.70;93.70;;;;;;5316781;26;20301;-71
2024/04/09 07:01:47;;;;;;;522.07;496.83;;;12.60;93.90;;;;;;5313057;26;20275;-68
2024/04/09 07:04:15;;;;;;;517.30;491.90;;;12.60;93.80;;;;;;5315573;26;20251;-70
2024/04/09 07:06:43;;;;;;;521.00;495.70;;;12.50;93.80;;;;;;5313000;26;20235;-69
2024/04/09 07:09:16;;;;;;;529.00;503.20;;;12.50;93.90;;;;;;5314854;26;20647;-73
2024/04/09 07:11:45;;;;;;;511.37;486.83;;;12.50;93.90;;;;;;5311446;26;20307;-70
2024/04/09 07:14:15;;;;;;;516.47;491.37;;;12.40;93.90;;;;;;5302906;26;20278;-70
2024/04/09 07:16:46;;;;;;;505.10;480.33;;;12.40;93.70;;;;;;5299520;26;20233;-71
2024/04/09 07:19:14;;;;;;;516.57;491.37;;;12.30;93.70;;;;;;5318861;26;20235;-70
2024/04/09 07:21:41;;;;;;;550.20;522.70;;;12.40;93.70;;;;;;5317848;26;20806;-72
2024/04/09 07:24:09;;;;;;;543.70;516.53;;;12.50;94.00;;;;;;5309988;26;20251;-74
2024/04/09 07:26:37;;;;;;;550.50;522.63;;;12.50;93.80;;;;;;5312148;26;20248;-72
2024/04/09 07:29:04;;;;;;;560.87;532.60;;;12.50;93.90;;;;;;5314559;26;20347;-71
2024/04/09 07:31:32;;;;;;;563.73;535.13;;;12.50;94.00;;;;;;5308313;26;20242;-71
2024/04/09 07:33:59;;;;;;;545.90;517.83;;;12.60;94.10;;;;;;5308971;26;20303;-72
2024/04/09 07:36:26;;;;;;;525.80;498.47;;;12.60;93.90;;;;;;5327264;26;20299;-71
2024/04/09 07:38:54;;;;;;;498.27;472.63;;;12.40;93.90;;;;;;5316261;26;20239;-69
2024/04/09 07:41:25;;;;;;;503.83;477.83;;;12.30;93.70;;;;;;5310874;26;20287;-71
2024/04/09 07:43:54;;;;;;;516.73;489.90;;;12.40;93.80;;;;;;5305823;26;20279;-72
2024/04/09 07:46:22;;;;;;;513.73;487.00;;;12.30;93.70;;;;;;5310687;26;20354;-72
2024/04/09 07:48:50;;;;;;;508.97;482.40;;;12.30;93.70;;;;;;5311622;26;20240;-70
2024/04/09 07:51:17;;;;;;;519.83;492.57;;;12.40;93.50;;;;;;5361033;26;21512;-74
2024/04/09 07:53:45;;;;;;;527.83;500.37;;;12.30;93.60;;;;;;5302083;26;20631;-71
2024/04/09 07:56:15;;;;;;;529.27;501.83;;;12.30;93.70;;;;;;5315641;26;20348;-70
2024/04/09 07:58:43;;;;;;;549.60;520.87;;;12.20;93.50;;;;;;5313295;26;20687;-75
2024/04/09 08:01:10;;;;;;;532.87;504.90;;;12.30;93.90;;;;;;5308996;26;20268;-69
2024/04/09 08:03:38;;;;;;;535.37;507.37;;;12.20;93.40;;;;;;5309860;26;20291;-72
2024/04/09 08:06:06;;;;;;;533.83;506.00;;;12.20;93.70;;;;;;5306182;26;20725;-73
2024/04/09 08:08:36;;;;;;;541.87;513.40;;;12.20;93.80;;;;;;5316008;26;20735;-74
2024/04/09 08:11:11;;;;;;;521.93;494.77;;;12.20;93.60;;;;;;5315910;26;20231;-72
2024/04/09 08:13:39;;;;;;;548.67;519.87;;;12.10;93.50;;;;;;5315211;26;20240;-73
2024/04/09 08:16:10;;;;;;;549.37;520.60;;;12.20;93.70;;;;;;5320589;26;20322;-71
2024/04/09 08:18:38;;;;;;;572.17;541.83;;;12.20;93.70;;;;;;5308879;26;20312;-73
2024/04/09 08:21:05;;;;;;;556.10;526.77;;;12.20;93.70;;;;;;5307665;26;20248;-73
2024/04/09 08:23:33;;;;;;;542.77;514.00;;;12.20;93.70;;;;;;5314503;26;20239;-71
2024/04/09 08:26:00;;;;;;;546.83;517.57;;;12.20;93.60;;;;;;5320126;26;20235;-73
2024/04/09 08:28:28;;;;;;;549.33;520.43;;;12.20;93.90;;;;;;5313612;26;20301;-72
2024/04/09 08:30:55;;;;;;;575.07;544.27;;;12.20;93.90;;;;;;5322108;26;20243;-73
2024/04/09 08:33:22;;;;;;;589.80;558.13;;;12.30;93.80;;;;;;5320795;26;20232;-71
2024/04/09 08:35:50;;;;;;;608.50;575.23;;;12.20;93.60;;;;;;5331792;26;20257;-75
2024/04/09 08:38:20;;;;;;;621.77;587.43;;;12.20;93.80;;;;;;5322456;26;20236;-73
2024/04/09 08:40:47;;;;;;;634.87;599.73;;;12.30;93.90;;;;;;5316424;26;20519;-73
2024/04/09 08:43:17;;;;;;;634.73;599.70;;;12.20;94.00;;;;;;5329234;26;20243;-75
2024/04/09 08:45:45;;;;;;;640.93;605.37;;;12.30;94.10;;;;;;5317054;26;20248;-72
2024/04/09 08:48:16;;;;;;;636.07;600.87;;;12.20;94.00;;;;;;5327695;26;20240;-72
2024/04/09 08:50:52;;;;;;;659.77;622.47;;;12.20;94.20;;;;;;5319246;26;20252;-71
2024/04/09 08:53:24;;;;;;;667.33;629.33;;;12.20;94.30;;;;;;5322074;26;20252;-72
2024/04/09 08:55:56;;;;;;;671.83;633.10;;;12.30;94.50;;;;;;5311887;26;20578;-71
2024/04/09 08:58:23;;;;;;;677.10;638.60;;;12.20;94.20;;;;;;5312149;26;20357;-72
2024/04/09 09:00:51;;;;;;;673.43;634.93;;;12.30;94.40;;;;;;5314204;26;20291;-71
2024/04/09 09:03:18;;;;;;;670.53;631.93;;;12.30;94.50;;;;;;5319969;26;20872;-73
2024/04/09 09:06:01;;;;;;;662.27;624.13;;;12.30;94.50;;;;;;5314893;26;20240;-73
2024/04/09 09:08:39;;;;;;;662.00;623.67;;;12.30;94.50;;;;;;5310019;26;20833;-72
2024/04/09 09:11:07;;;;;;;669.43;630.27;;;12.30;94.70;;;;;;5324662;26;20273;-73
2024/04/09 09:13:34;;;;;;;667.80;628.67;;;12.30;94.50;;;;;;5307511;26;20240;-72
2024/04/09 09:16:03;;;;;;;674.93;635.70;;;12.30;94.50;;;;;;5319265;26;20781;-72
2024/04/09 09:18:30;;;;;;;691.20;650.50;;;12.30;94.50;;;;;;5317766;26;20266;-72
2024/04/09 09:21:05;;;;;;;694.23;653.43;;;12.30;94.60;;;;;;5318980;26;20244;-73
2024/04/09 09:23:34;;;;;;;681.17;641.50;;;12.30;94.50;;;;;;5327628;26;20235;-71
2024/04/09 09:26:02;;;;;;;678.87;639.13;;;12.30;94.50;;;;;;5320939;26;20239;-70
2024/04/09 09:28:29;;;;;;;687.57;647.27;;;12.30;94.60;;;;;;5324765;26;20235;-72
2024/04/09 09:30:57;;;;;;;692.90;652.13;;;12.30;94.50;;;;;;5322435;26;21312;-73
2024/04/09 09:33:26;;;;;;;703.67;661.97;;;12.30;94.60;;;;;;5326584;26;20274;-71
2024/04/09 09:35:55;;;;;;;695.57;655.40;;;12.30;94.60;;;;;;5315899;26;20238;-71
2024/04/09 09:38:26;;;;;;;699.57;658.50;;;12.20;94.50;;;;;;5323232;26;20235;-72
2024/04/09 09:40:54;;;;;;;705.63;663.80;;;12.20;94.60;;;;;;5322100;26;20239;-71
2024/04/09 09:43:26;;;;;;;706.53;664.43;;;12.20;94.60;;;;;;5324748;26;20346;-73
2024/04/09 09:45:54;;;;;;;707.07;664.50;;;12.20;94.60;;;;;;5316121;26;20564;-71
2024/04/09 09:48:24;;;;;;;694.33;652.97;;;12.20;94.60;;;;;;5311503;26;20315;-71
2024/04/09 09:50:52;;;;;;;715.33;672.87;;;12.20;94.70;;;;;;5311677;26;20815;-72
2024/04/09 09:53:20;;;;;;;727.03;683.53;;;12.20;94.70;;;;;;5311794;26;20257;-72
2024/04/09 09:55:55;;;;;;;721.83;678.13;;;12.20;94.80;;;;;;5311622;26;20263;-71
2024/04/09 09:58:31;;;;;;;723.10;679.20;;;12.20;94.70;;;;;;5318786;26;20232;-72
2024/04/09 10:01:02;;;;;;;732.07;687.70;;;12.20;94.90;;;;;;5313136;26;20252;-72
2024/04/09 10:03:30;;;;;;;723.50;679.50;;;12.20;94.80;;;;;;5312663;26;20322;-71
2024/04/09 10:05:59;;;;;;;731.37;687.10;;;12.20;94.80;;;;;;5314361;26;20296;-72
2024/04/09 10:08:30;;;;;;;721.57;677.70;;;12.20;94.80;;;;;;5309616;26;20252;-72
2024/04/09 10:10:59;;;;;;;725.47;681.10;;;12.20;94.90;;;;;;5313736;26;20287;-71
2024/04/09 10:13:28;;;;;;;727.50;683.20;;;12.20;94.90;;;;;;5311204;26;20255;-73
2024/04/09 10:16:00;;;;;;;723.33;679.00;;;12.20;94.90;;;;;;5313289;26;20239;-71
2024/04/09 10:18:40;;;;;;;727.00;683.10;;;12.20;94.90;;;;;;5311133;26;20286;-72
2024/04/09 10:21:09;;;;;;;725.83;681.87;;;12.10;94.90;;;;;;5316420;26;20626;-75
2024/04/09 10:23:39;;;;;;;724.07;680.67;;;12.10;94.90;;;;;;5317046;26;20242;-72
2024/04/09 10:26:10;;;;;;;710.57;668.23;;;12.00;94.90;;;;;;5317877;26;20235;-72
2024/04/09 10:28:38;;;;;;;714.73;671.83;;;12.00;94.90;;;;;;5310905;26;20272;-73
2024/04/09 10:31:09;;;;;;;710.97;668.70;;;12.00;94.90;;;;;;5311300;26;20237;-76
2024/04/09 10:33:39;;;;;;;690.50;650.27;;;12.00;94.90;;;;;;5308602;26;20295;-74
2024/04/09 10:36:08;;;;;;;696.53;656.47;;;12.00;94.80;;;;;;5311784;26;20232;-70
2024/04/09 10:38:39;;;;;;;694.40;654.10;;;11.90;94.80;;;;;;5309887;26;20243;-74
2024/04/09 10:41:06;;;;;;;701.30;660.57;;;12.00;94.90;;;;;;5312130;26;20239;-73
2024/04/09 10:43:35;;;;;;;701.70;660.67;;;12.00;94.80;;;;;;5310887;26;20291;-72
2024/04/09 10:46:05;;;;;;;697.50;657.27;;;12.00;94.60;;;;;;5315172;26;20347;-71
2024/04/09 10:48:32;;;;;;;697.63;657.33;;;11.90;94.50;;;;;;5314370;26;20236;-71
2024/04/09 10:51:00;;;;;;;715.33;673.13;;;11.90;94.50;;;;;;5317271;26;20236;-73
2024/04/09 10:53:28;;;;;;;700.43;659.80;;;12.00;94.50;;;;;;5317510;26;20244;-73
2024/04/09 10:56:01;;;;;;;687.77;648.30;;;11.90;94.00;;;;;;5312297;26;20317;-72
2024/04/09 10:58:29;;;;;;;721.27;678.17;;;11.90;93.50;;;;;;5344181;26;20243;-74
2024/04/09 11:00:57;;;;;;;707.40;665.63;;;12.00;93.50;;;;;;5318756;26;20242;-72
2024/04/09 11:03:25;;;;;;;742.33;697.00;;;12.10;93.00;;;;;;5311429;26;22269;-73
2024/04/09 11:05:52;;;;;;;734.40;689.87;;;12.20;92.90;;;;;;5310602;26;20275;-74
2024/04/09 11:08:34;;;;;;;728.73;684.47;;;12.20;92.40;;;;;;5313642;26;20308;-74
2024/04/09 11:11:02;;;;;;;723.27;678.67;;;12.20;92.00;;;;;;5312934;26;20235;-71
2024/04/09 11:13:33;;;;;;;711.13;667.77;;;12.20;91.70;;;;;;5309330;26;20244;-74
2024/04/09 11:16:01;;;;;;;715.03;671.93;;;12.20;91.20;;;;;;5312236;26;20271;-72
2024/04/09 11:18:29;;;;;;;706.27;663.97;;;12.20;91.10;;;;;;5313570;26;20229;-73
2024/04/09 11:20:59;;;;;;;703.30;661.10;;;12.20;90.70;;;;;;5317035;26;20324;-73
2024/04/09 11:23:31;;;;;;;709.93;667.30;;;12.20;90.70;;;;;;5316263;26;20240;-72
2024/04/09 11:26:00;;;;;;;697.17;655.30;;;12.30;90.40;;;;;;5310172;26;20287;-72
2024/04/09 11:28:28;;;;;;;697.53;655.70;;;12.30;90.30;;;;;;5307726;26;20268;-73
2024/04/09 11:30:56;;;;;;;713.40;670.57;;;12.40;90.00;;;;;;5310429;27;20327;-73
2024/04/09 11:33:24;;;;;;;715.97;672.90;;;12.40;90.00;;;;;;5309410;27;20767;-71
2024/04/09 11:35:57;;;;;;;697.77;655.60;;;12.40;89.80;;;;;;5310438;26;20530;-72
2024/04/09 11:38:24;;;;;;;694.80;652.67;;;12.30;89.60;;;;;;5309688;26;20232;-73
2024/04/09 11:40:52;;;;;;;699.70;657.27;;;12.30;89.70;;;;;;5337597;26;20245;-71
2024/04/09 11:43:23;;;;;;;684.83;644.07;;;12.30;89.80;;;;;;5307943;26;21382;-72
2024/04/09 11:45:50;;;;;;;674.07;634.00;;;12.20;89.70;;;;;;5310248;26;20669;-72
2024/04/09 11:48:18;;;;;;;674.40;633.83;;;12.20;89.60;;;;;;5307962;26;20247;-72
2024/04/09 11:50:46;;;;;;;638.60;601.50;;;12.20;89.40;;;;;;5310508;26;20239;-72
2024/04/09 11:53:13;;;;;;;660.70;621.90;;;12.20;89.00;;;;;;5304286;26;20288;-71
2024/04/09 11:55:41;;;;;;;658.10;619.77;;;12.20;89.10;;;;;;5310477;26;20300;-75
2024/04/09 11:58:08;;;;;;;658.77;620.37;;;12.20;89.10;;;;;;5305650;26;20287;-73
2024/04/09 12:00:36;;;;;;;629.20;592.77;;;12.20;89.10;;;;;;5309909;26;20309;-72
2024/04/09 12:03:04;;;;;;;648.27;610.60;;;12.20;89.00;;;;;;5306890;26;20239;-73
2024/04/09 12:05:32;;;;;;;614.87;579.80;;;12.30;89.10;;;;;;5310692;26;20731;-72
2024/04/09 12:08:02;;;;;;;616.80;581.37;;;12.20;88.80;;;;;;5310550;26;20327;-72
2024/04/09 12:10:29;;;;;;;613.77;578.37;;;12.30;88.70;;;;;;5300165;27;20244;-73
2024/04/09 12:12:57;;;;;;;584.67;551.33;;;12.30;88.60;;;;;;5309400;27;20727;-73
2024/04/09 12:15:24;;;;;;;578.90;546.10;;;12.30;88.20;;;;;;5313524;26;20262;-73
2024/04/09 12:17:52;;;;;;;597.30;563.27;;;12.40;88.00;;;;;;5310801;26;20225;-73
2024/04/09 12:20:19;;;;;;;573.40;541.13;;;12.50;88.20;;;;;;5311368;26;20690;-74
2024/04/09 12:22:47;;;;;;;517.63;489.17;;;12.50;88.00;;;;;;5309694;26;20236;-73
2024/04/09 12:25:15;;;;;;;518.67;489.80;;;12.60;87.30;;;;;;5313857;26;20282;-73
2024/04/09 12:27:43;;;;;;;506.97;478.93;;;12.70;87.30;;;;;;5349319;26;20295;-73